Time;durP1;ratioP1;P1;durP2;ratioP2;P2;SDS_P1;SDS_P2;PMS_P1;PMS_P2;Temp;Humidity;BMP_temperature;BMP_pressure;BME280_temperature;BME280_humidity;BME280_pressure;Samples;Min_cycle;Max_cycle;Signal;HPM_P1;HPM_P2
2022/05/30 00:00:10;;;;;;;;;;;;;;;22.87;46.43;98688.84;2043757;28;20375;-45
2022/05/30 00:01:15;;;;;;;;;;;;;;;22.88;46.41;98689.66;2044713;28;20290;-45
2022/05/30 00:02:15;;;;;;;;;;;;;;;22.88;46.55;98692.41;2044586;28;19910;-45
2022/05/30 00:03:17;;;;;;;;;;;;;;;22.87;46.48;98696.25;2044124;28;19921;-45
2022/05/30 00:04:17;;;;;;;;;;;;;;;22.88;46.43;98692.41;2041301;28;19918;-44
2022/05/30 00:05:19;;;;;;;;;;;;;;;22.88;46.51;98695.16;2044235;28;19992;-46
2022/05/30 00:06:21;;;;;;;;;;;;;;;22.88;46.57;98695.16;2043900;28;20245;-46
2022/05/30 00:07:21;;;;;;;;;;;;;;;22.87;46.67;98698.97;2043792;28;20159;-44
2022/05/30 00:08:21;;;;;;;;;;;;;;;22.88;46.52;98689.66;2044252;28;19940;-44
2022/05/30 00:09:21;;;;;;;;;;;;;;;22.89;46.69;98696.88;2044191;28;20214;-45
2022/05/30 00:10:22;;;;;;;;;;;;;;;22.87;46.66;98698.97;2044265;28;19929;-45
2022/05/30 00:11:22;;;;;;;;;;;;;;;22.88;46.67;98695.16;2043781;28;19918;-45
2022/05/30 00:12:23;;;;;;;;;;;;;;;22.87;46.70;98688.00;2045165;28;20695;-46
2022/05/30 00:13:23;;;;;;;;;;;;;;;22.87;46.60;98699.81;2051749;28;19910;-47
2022/05/30 00:14:23;;;;;;;;;;;;;;;22.87;46.70;98693.50;2052138;28;19918;-46
2022/05/30 00:15:24;;;;;;;;;;;;;;;22.86;46.85;98686.31;2044673;28;19925;-45
2022/05/30 00:16:24;;;;;;;;;;;;;;;22.86;46.77;98686.31;2045279;28;19924;-45
2022/05/30 00:17:25;;;;;;;;;;;;;;;22.85;46.92;98690.09;2044545;28;19972;-46
2022/05/30 00:18:26;;;;;;;;;;;;;;;22.84;46.96;98686.50;2043421;28;19933;-45
2022/05/30 00:19:26;;;;;;;;;;;;;;;22.85;46.85;98684.59;2045772;28;19953;-45
2022/05/30 00:20:26;;;;;;;;;;;;;;;22.84;46.82;98688.41;2043607;28;19911;-45
2022/05/30 00:21:27;;;;;;;;;;;;;;;22.83;46.80;98692.19;2044767;28;20226;-45
2022/05/30 00:22:27;;;;;;;;;;;;;;;22.84;46.82;98693.91;2043911;28;20184;-44
2022/05/30 00:23:28;;;;;;;;;;;;;;;22.83;46.96;98686.72;2044710;28;20009;-44
2022/05/30 00:24:28;;;;;;;;;;;;;;;22.83;46.89;98690.31;2044348;28;19918;-47
2022/05/30 00:25:28;;;;;;;;;;;;;;;22.83;46.85;98695.81;2046408;28;20405;-44
2022/05/30 00:26:29;;;;;;;;;;;;;;;22.83;46.92;98692.19;2044552;28;20020;-46
2022/05/30 00:27:29;;;;;;;;;;;;;;;22.83;46.88;98689.47;2043213;28;20253;-44
2022/05/30 00:28:30;;;;;;;;;;;;;;;22.82;46.89;98696.03;2052044;28;19917;-44
2022/05/30 00:29:30;;;;;;;;;;;;;;;22.83;46.92;98697.69;2052172;28;19921;-45
2022/05/30 00:30:31;;;;;;;;;;;;;;;22.83;46.89;98694.94;2042928;28;19922;-44
2022/05/30 00:31:31;;;;;;;;;;;;;;;22.83;46.88;98694.94;2046116;28;19918;-44
2022/05/30 00:32:33;;;;;;;;;;;;;;;22.82;46.78;98698.75;2042647;28;20258;-44
2022/05/30 00:33:33;;;;;;;;;;;;;;;22.83;46.92;98694.94;2044426;28;20253;-44
2022/05/30 00:34:34;;;;;;;;;;;;;;;22.83;46.84;98692.19;2044426;28;20274;-44
2022/05/30 00:35:34;;;;;;;;;;;;;;;22.83;46.87;98692.19;2043270;28;19918;-46
2022/05/30 00:36:35;;;;;;;;;;;;;;;22.82;46.77;98696.03;2040869;28;20256;-44
2022/05/30 00:37:35;;;;;;;;;;;;;;;22.82;46.64;98690.53;2044811;28;20347;-45
2022/05/30 00:38:35;;;;;;;;;;;;;;;22.82;46.59;98687.78;2043777;28;19925;-47
2022/05/30 00:39:35;;;;;;;;;;;;;;;22.82;46.68;98688.63;2042690;28;19918;-45
2022/05/30 00:40:36;;;;;;;;;;;;;;;22.82;46.70;98696.84;2044373;28;20236;-45
2022/05/30 00:41:37;;;;;;;;;;;;;;;22.83;46.64;98700.44;2043015;28;19938;-45
2022/05/30 00:42:37;;;;;;;;;;;;;;;22.82;46.73;98690.53;2045027;28;20013;-45
2022/05/30 00:43:38;;;;;;;;;;;;;;;22.81;46.80;98691.59;2043331;28;20294;-45
2022/05/30 00:44:43;;;;;;;;;;;;;;;22.81;46.66;98689.69;2042427;28;19918;-44
2022/05/30 00:45:43;;;;;;;;;;;;;;;22.81;46.86;98688.84;2043296;28;20344;-45
2022/05/30 00:46:44;;;;;;;;;;;;;;;22.82;46.82;98698.75;2042836;28;19944;-44
2022/05/30 00:47:44;;;;;;;;;;;;;;;22.82;46.72;98693.28;2044848;28;19911;-45
2022/05/30 00:48:47;;;;;;;;;;;;;;;22.81;46.70;98688.84;2044959;28;19917;-45
2022/05/30 00:49:48;;;;;;;;;;;;;;;22.81;46.67;98688.84;2045422;28;19926;-44
2022/05/30 00:50:51;;;;;;;;;;;;;;;22.80;46.71;98685.22;2044801;28;20375;-47
2022/05/30 00:51:54;;;;;;;;;;;;;;;22.81;46.79;98695.19;2044659;28;20237;-45
2022/05/30 00:52:54;;;;;;;;;;;;;;;22.80;47.04;98687.13;2044749;28;19918;-46
2022/05/30 00:53:56;;;;;;;;;;;;;;;22.79;47.06;98691.78;2044131;28;19918;-45
2022/05/30 00:55:00;;;;;;;;;;;;;;;22.79;46.87;98690.94;2044417;28;19969;-45
2022/05/30 00:56:02;;;;;;;;;;;;;;;22.78;46.97;98689.22;2044055;28;19966;-45
2022/05/30 00:57:20;;;;;;;;;;;;;;;22.78;47.02;98694.72;2044595;28;19921;-46
2022/05/30 00:58:21;;;;;;;;;;;;;;;22.78;47.03;98690.06;2043415;28;19926;-45
2022/05/30 00:59:22;;;;;;;;;;;;;;;22.78;46.90;98686.50;2042821;28;19978;-45
2022/05/30 01:00:25;;;;;;;;;;;;;;;22.77;47.05;98691.16;2044959;28;20419;-44
2022/05/30 01:01:27;;;;;;;;;;;;;;;22.77;47.00;98698.53;2043572;28;20193;-46
2022/05/30 01:02:29;;;;;;;;;;;;;;;22.77;46.95;98690.31;2044369;28;19918;-45
2022/05/30 01:06:34;;;;;;;;;;;;;;;22.77;46.97;98693.88;2058096;28;20004;-45
2022/05/30 01:07:35;;;;;;;;;;;;;;;22.76;46.97;98692.22;2058991;28;19955;-45
2022/05/30 01:08:36;;;;;;;;;;;;;;;22.78;47.07;98689.22;2059332;28;20283;-44
2022/05/30 01:09:40;;;;;;;;;;;;;;;22.78;47.17;98689.22;2057994;28;19921;-44
2022/05/30 01:10:40;;;;;;;;;;;;;;;22.77;47.20;98693.06;2058983;28;19921;-45
2022/05/30 01:11:57;;;;;;;;;;;;;;;22.77;47.11;98693.06;2057339;28;20790;-44
2022/05/30 01:12:58;;;;;;;;;;;;;;;22.78;47.21;98691.97;2039067;28;20391;-46
2022/05/30 01:13:58;;;;;;;;;;;;;;;22.77;47.13;98688.41;2043187;28;19925;-45
2022/05/30 01:14:59;;;;;;;;;;;;;;;22.77;47.06;98687.56;2043117;28;19918;-45
2022/05/30 01:15:59;;;;;;;;;;;;;;;22.76;47.04;98692.22;2045694;28;19914;-45
2022/05/30 01:17:00;;;;;;;;;;;;;;;22.78;47.03;98686.50;2044293;28;19926;-45
2022/05/30 01:18:07;;;;;;;;;;;;;;;22.78;47.19;98689.22;2043415;28;19917;-45
2022/05/30 01:19:16;;;;;;;;;;;;;;;22.77;47.04;98693.06;2036867;28;19920;-45
2022/05/30 01:20:25;;;;;;;;;;;;;;;22.77;47.13;98693.06;2040899;28;19929;-45
2022/05/30 01:21:34;;;;;;;;;;;;;;;22.78;46.99;98694.72;2038907;28;19930;-46
2022/05/30 01:22:38;;;;;;;;;;;;;;;22.78;47.25;98694.72;2044504;28;20205;-45
2022/05/30 01:23:38;;;;;;;;;;;;;;;22.76;47.25;98685.84;2042132;28;19973;-45
2022/05/30 01:24:54;;;;;;;;;;;;;;;22.76;47.20;98685.84;2043535;28;19922;-44
2022/05/30 01:26:00;;;;;;;;;;;;;;;22.76;47.14;98691.34;2044210;28;20368;-45
2022/05/30 01:27:00;;;;;;;;;;;;;;;22.75;47.30;98679.50;2042744;28;20622;-45
2022/05/30 01:28:03;;;;;;;;;;;;;;;22.75;47.39;98682.25;2044142;28;19932;-44
2022/05/30 01:29:20;;;;;;;;;;;;;;;22.76;47.43;98685.84;2043675;28;19973;-45
2022/05/30 01:30:20;;;;;;;;;;;;;;;22.75;47.31;98687.75;2043213;28;20562;-46
2022/05/30 01:31:22;;;;;;;;;;;;;;;22.74;47.25;98680.56;2043282;28;19918;-45
2022/05/30 01:32:23;;;;;;;;;;;;;;;22.74;47.38;98687.97;2044148;28;19922;-44
2022/05/30 01:33:24;;;;;;;;;;;;;;;22.74;47.49;98688.81;2043147;28;19926;-45
2022/05/30 01:34:25;;;;;;;;;;;;;;;22.74;47.48;98687.97;2035561;28;19930;-44
2022/05/30 01:35:26;;;;;;;;;;;;;;;22.73;47.46;98689.00;2040208;28;19914;-44
2022/05/30 01:36:28;;;;;;;;;;;;;;;22.73;47.38;98689.84;2044031;28;20094;-44
2022/05/30 01:37:29;;;;;;;;;;;;;;;22.73;47.57;98691.75;2043768;28;19944;-46
2022/05/30 01:38:29;;;;;;;;;;;;;;;22.72;47.45;98690.91;2047675;28;19999;-44
2022/05/30 01:39:29;;;;;;;;;;;;;;;22.73;47.43;98694.50;2043188;28;19910;-44
2022/05/30 01:40:30;;;;;;;;;;;;;;;22.72;47.40;98690.91;2042915;28;20171;-45
2022/05/30 01:41:30;;;;;;;;;;;;;;;22.72;47.35;98690.09;2044222;28;19976;-44
2022/05/30 01:42:31;;;;;;;;;;;;;;;22.72;47.46;98690.09;2044379;28;20328;-46
2022/05/30 01:43:31;;;;;;;;;;;;;;;22.73;47.54;98697.25;2043816;28;19964;-45
2022/05/30 01:44:31;;;;;;;;;;;;;;;22.73;47.56;98698.09;2044486;28;20676;-45
2022/05/30 01:45:32;;;;;;;;;;;;;;;22.73;47.42;98697.25;2043493;28;19922;-46
2022/05/30 01:46:32;;;;;;;;;;;;;;;22.72;47.53;98696.41;2044026;28;19918;-44
2022/05/30 01:47:33;;;;;;;;;;;;;;;22.72;47.63;98701.06;2043291;28;19914;-46
2022/05/30 01:48:34;;;;;;;;;;;;;;;22.72;47.49;98690.09;2043864;28;20151;-46
2022/05/30 01:49:34;;;;;;;;;;;;;;;22.73;47.63;98700.00;2044208;28;20009;-47
2022/05/30 01:50:34;;;;;;;;;;;;;;;22.72;47.41;98695.56;2042566;28;20311;-45
2022/05/30 01:51:35;;;;;;;;;;;;;;;22.72;47.35;98695.56;2044388;28;20012;-44
2022/05/30 01:52:35;;;;;;;;;;;;;;;22.72;47.34;98701.91;2043918;28;19922;-44
2022/05/30 01:53:35;;;;;;;;;;;;;;;22.71;47.39;98694.75;2044119;28;19924;-45
2022/05/30 01:54:36;;;;;;;;;;;;;;;22.72;47.40;98696.41;2043947;28;20482;-45
2022/05/30 01:55:36;;;;;;;;;;;;;;;22.72;47.50;98701.06;2042617;28;19922;-46
2022/05/30 01:56:36;;;;;;;;;;;;;;;22.72;47.55;98701.06;2044515;28;19954;-46
2022/05/30 01:57:37;;;;;;;;;;;;;;;22.71;47.45;98694.75;2041065;28;19957;-44
2022/05/30 01:58:38;;;;;;;;;;;;;;;22.71;47.47;98689.25;2044242;28;19925;-44
2022/05/30 01:59:38;;;;;;;;;;;;;;;22.71;47.48;98694.75;2044396;28;19928;-44
2022/05/30 02:00:39;;;;;;;;;;;;;;;22.71;47.63;98694.75;2043903;28;20216;-44
2022/05/30 02:01:44;;;;;;;;;;;;;;;22.71;47.44;98693.88;2043688;28;19918;-44
2022/05/30 02:02:45;;;;;;;;;;;;;;;22.72;47.54;98701.06;2044635;28;19932;-45
2022/05/30 02:03:46;;;;;;;;;;;;;;;22.69;47.71;98697.69;2043301;28;20412;-45
2022/05/30 02:04:46;;;;;;;;;;;;;;;22.71;47.78;98693.88;2044084;28;19918;-45
2022/05/30 02:05:46;;;;;;;;;;;;;;;22.71;47.65;98693.88;2043621;28;19918;-47
2022/05/30 02:06:47;;;;;;;;;;;;;;;22.69;47.62;98697.69;2043809;28;19918;-44
2022/05/30 02:07:47;;;;;;;;;;;;;;;22.68;47.72;98696.00;2044370;28;20514;-46
2022/05/30 02:08:48;;;;;;;;;;;;;;;22.68;47.83;98700.63;2042710;28;20237;-45
2022/05/30 02:09:48;;;;;;;;;;;;;;;22.68;47.64;98696.00;2044280;28;20242;-46
2022/05/30 02:10:48;;;;;;;;;;;;;;;22.68;47.83;98701.50;2044142;28;19941;-45
2022/05/30 02:11:49;;;;;;;;;;;;;;;22.67;47.90;98697.03;2042300;28;20001;-48
2022/05/30 02:12:49;;;;;;;;;;;;;;;22.66;47.66;98695.34;2043460;28;19926;-47
2022/05/30 02:13:49;;;;;;;;;;;;;;;22.67;47.72;98699.78;2043901;28;20321;-45
2022/05/30 02:14:50;;;;;;;;;;;;;;;22.67;47.82;98699.78;2051798;28;20300;-44
2022/05/30 02:17:09;;;;;;;;;;;;;;;22.67;47.74;98705.28;2043096;28;19922;-44
2022/05/30 02:18:10;;;;;;;;;;;;;;;22.68;47.84;98706.13;2044246;28;19969;-44
2022/05/30 02:19:10;;;;;;;;;;;;;;;22.67;47.75;98713.50;2045403;28;20213;-44
2022/05/30 02:20:11;;;;;;;;;;;;;;;22.67;47.75;98718.16;2045165;28;20337;-45
2022/05/30 02:21:11;;;;;;;;;;;;;;;22.68;47.84;98712.47;2037945;28;19918;-45
2022/05/30 02:22:12;;;;;;;;;;;;;;;22.67;47.79;98710.75;2043393;28;20065;-45
2022/05/30 02:23:13;;;;;;;;;;;;;;;22.68;47.90;98711.59;2045601;28;19928;-44
2022/05/30 02:24:13;;;;;;;;;;;;;;;22.68;47.83;98712.47;2045325;28;20402;-45
2022/05/30 02:25:14;;;;;;;;;;;;;;;22.67;47.64;98709.94;2044061;28;20305;-45
2022/05/30 02:26:14;;;;;;;;;;;;;;;22.67;47.57;98708.03;2045607;28;20062;-45
2022/05/30 02:27:15;;;;;;;;;;;;;;;22.67;47.72;98705.28;2044701;28;19910;-44
2022/05/30 02:28:16;;;;;;;;;;;;;;;22.67;47.85;98705.28;2045130;28;19925;-45
2022/05/30 02:29:16;;;;;;;;;;;;;;;22.67;47.62;98709.94;2045070;28;19930;-48
2022/05/30 02:30:17;;;;;;;;;;;;;;;22.66;47.75;98713.72;2044929;28;20021;-45
2022/05/30 02:31:17;;;;;;;;;;;;;;;22.67;47.85;98715.41;2046205;28;19910;-46
2022/05/30 02:32:19;;;;;;;;;;;;;;;22.66;47.73;98714.59;2044467;28;19918;-45
2022/05/30 02:37:16;;;;;;;;;;;;;;;22.66;47.77;98711.84;2044748;28;20355;-45
2022/05/30 02:38:16;;;;;;;;;;;;;;;22.66;47.91;98717.31;2044892;28;19962;-45
2022/05/30 02:39:18;;;;;;;;;;;;;;;22.66;47.81;98717.31;2047471;28;19918;-45
2022/05/30 02:40:18;;;;;;;;;;;;;;;22.65;47.86;98723.00;2044300;28;19918;-46
2022/05/30 02:41:18;;;;;;;;;;;;;;;22.65;48.06;98717.53;2045614;28;20167;-45
2022/05/30 02:42:19;;;;;;;;;;;;;;;22.65;48.12;98718.38;2043854;28;20223;-45
2022/05/30 02:43:19;;;;;;;;;;;;;;;22.63;48.07;98720.47;2044620;28;20746;-46
2022/05/30 02:44:20;;;;;;;;;;;;;;;22.63;48.03;98725.13;2044501;28;20087;-45
2022/05/30 02:45:21;;;;;;;;;;;;;;;22.63;47.95;98725.94;2045730;28;19968;-44
2022/05/30 02:46:21;;;;;;;;;;;;;;;22.63;48.08;98725.94;2044725;28;19925;-45
2022/05/30 02:47:21;;;;;;;;;;;;;;;22.63;47.99;98728.69;2045260;28;19924;-46
2022/05/30 02:48:22;;;;;;;;;;;;;;;22.63;47.90;98727.84;2045855;28;19945;-44
2022/05/30 02:49:23;;;;;;;;;;;;;;;22.63;48.12;98731.44;2044421;28;20030;-45
2022/05/30 02:50:24;;;;;;;;;;;;;;;22.62;48.18;98738.00;2045649;28;19918;-45
2022/05/30 02:51:25;;;;;;;;;;;;;;;22.62;48.13;98737.16;2044258;28;19922;-44
2022/05/30 02:52:25;;;;;;;;;;;;;;;22.63;48.14;98736.09;2044246;28;20326;-44
2022/05/30 02:53:26;;;;;;;;;;;;;;;22.61;48.12;98728.09;2046001;28;19925;-44
2022/05/30 02:54:26;;;;;;;;;;;;;;;22.61;47.99;98736.31;2044823;28;19921;-44
2022/05/30 02:55:27;;;;;;;;;;;;;;;22.62;47.98;98729.78;2054857;28;19918;-45
2022/05/30 02:56:27;;;;;;;;;;;;;;;22.62;48.10;98737.16;2051601;28;19925;-44
2022/05/30 02:57:27;;;;;;;;;;;;;;;22.61;48.08;98739.06;2044210;28;19968;-45
2022/05/30 02:58:28;;;;;;;;;;;;;;;22.63;48.08;98731.44;2047335;28;19914;-44
2022/05/30 02:59:28;;;;;;;;;;;;;;;22.62;47.96;98735.25;2043593;28;20315;-45
2022/05/30 03:00:28;;;;;;;;;;;;;;;22.62;48.07;98740.75;2044293;28;20193;-48
2022/05/30 03:01:31;;;;;;;;;;;;;;;22.62;48.06;98740.75;2046592;28;20305;-44
2022/05/30 03:02:31;;;;;;;;;;;;;;;22.62;47.95;98746.25;2042573;28;20376;-45
2022/05/30 03:03:32;;;;;;;;;;;;;;;22.62;47.80;98743.50;2046214;28;20009;-45
2022/05/30 03:04:32;;;;;;;;;;;;;;;22.62;47.86;98749.00;2044265;28;20640;-46
2022/05/30 03:05:32;;;;;;;;;;;;;;;22.62;47.86;98746.25;2044842;28;19973;-45
2022/05/30 03:06:33;;;;;;;;;;;;;;;22.62;47.75;98749.00;2045745;28;19997;-45
2022/05/30 03:07:33;;;;;;;;;;;;;;;22.62;47.80;98751.75;2044262;28;19958;-44
2022/05/30 03:08:33;;;;;;;;;;;;;;;22.61;47.87;98750.06;2045681;28;20377;-48
2022/05/30 03:09:33;;;;;;;;;;;;;;;22.63;47.68;98760.81;2043949;28;20229;-44
2022/05/30 03:10:34;;;;;;;;;;;;;;;22.62;47.71;98751.75;2044173;28;20008;-44
2022/05/30 03:11:35;;;;;;;;;;;;;;;22.62;47.72;98761.88;2048974;28;19918;-45
2022/05/30 03:12:35;;;;;;;;;;;;;;;22.62;48.00;98757.22;2043689;28;19926;-45
2022/05/30 03:13:35;;;;;;;;;;;;;;;22.62;47.86;98765.47;2044087;28;20376;-49
2022/05/30 03:14:36;;;;;;;;;;;;;;;22.62;47.88;98759.97;2045118;28;20004;-48
2022/05/30 03:15:36;;;;;;;;;;;;;;;22.61;47.85;98761.03;2044101;28;19961;-46
2022/05/30 03:16:36;;;;;;;;;;;;;;;22.61;47.92;98763.78;2046550;28;19953;-45
2022/05/30 03:17:37;;;;;;;;;;;;;;;22.61;48.25;98757.44;2044242;28;19918;-46
2022/05/30 03:18:38;;;;;;;;;;;;;;;22.60;48.15;98764.81;2044490;28;19925;-44
2022/05/30 03:19:38;;;;;;;;;;;;;;;22.59;48.07;98768.63;2046338;28;19922;-44
2022/05/30 03:20:38;;;;;;;;;;;;;;;22.60;48.04;98764.81;2043805;28;19942;-44
2022/05/30 03:21:39;;;;;;;;;;;;;;;22.59;48.10;98765.88;2047967;28;19976;-46
2022/05/30 03:22:39;;;;;;;;;;;;;;;22.59;48.10;98765.88;2044507;28;19961;-44
2022/05/30 03:23:40;;;;;;;;;;;;;;;22.58;48.18;98758.69;2040042;28;19918;-44
2022/05/30 03:24:40;;;;;;;;;;;;;;;22.59;48.14;98757.66;2043419;28;19926;-44
2022/05/30 03:25:41;;;;;;;;;;;;;;;22.59;48.11;98759.56;2044992;28;19915;-44
2022/05/30 03:26:41;;;;;;;;;;;;;;;22.58;48.36;98760.59;2041036;28;19954;-45
2022/05/30 03:27:41;;;;;;;;;;;;;;;22.58;48.12;98761.44;2046412;28;20431;-45
2022/05/30 03:28:42;;;;;;;;;;;;;;;22.58;48.30;98761.44;2041756;28;19968;-45
2022/05/30 03:29:42;;;;;;;;;;;;;;;22.59;48.04;98763.16;2043460;28;20215;-45
2022/05/30 03:30:44;;;;;;;;;;;;;;;22.58;48.29;98768.81;2045301;28;19918;-45
2022/05/30 03:31:44;;;;;;;;;;;;;;;22.58;48.26;98766.91;2044552;28;19918;-45
2022/05/30 03:32:44;;;;;;;;;;;;;;;22.58;48.09;98758.69;2044594;28;20222;-45
2022/05/30 03:33:45;;;;;;;;;;;;;;;22.59;48.33;98757.66;2044847;28;19925;-45
2022/05/30 03:34:45;;;;;;;;;;;;;;;22.59;48.25;98762.31;2044312;28;20457;-45
2022/05/30 03:35:46;;;;;;;;;;;;;;;22.58;48.03;98761.44;2044946;28;20355;-45
2022/05/30 03:36:47;;;;;;;;;;;;;;;22.59;48.10;98762.31;2043365;28;19924;-45
2022/05/30 03:37:47;;;;;;;;;;;;;;;22.58;48.18;98758.69;2044954;28;20198;-45
2022/05/30 03:38:47;;;;;;;;;;;;;;;22.59;48.11;98765.88;2045065;28;19965;-45
2022/05/30 03:39:47;;;;;;;;;;;;;;;22.59;48.13;98768.63;2043912;28;19933;-47
2022/05/30 03:40:48;;;;;;;;;;;;;;;22.58;48.15;98771.56;2045167;28;19965;-45
2022/05/30 03:41:48;;;;;;;;;;;;;;;22.58;48.14;98772.41;2043830;28;19918;-46
2022/05/30 03:42:48;;;;;;;;;;;;;;;22.58;48.21;98760.59;2043267;28;19922;-44
2022/05/30 03:43:49;;;;;;;;;;;;;;;22.59;47.93;98767.78;2043893;28;20511;-47
2022/05/30 03:44:49;;;;;;;;;;;;;;;22.58;47.97;98769.66;2044636;28;20086;-44
2022/05/30 03:45:49;;;;;;;;;;;;;;;22.58;48.02;98772.41;2043877;28;19922;-45
2022/05/30 03:46:49;;;;;;;;;;;;;;;22.58;48.17;98772.41;2045186;28;19924;-45
2022/05/30 03:47:50;;;;;;;;;;;;;;;22.59;48.16;98778.78;2043456;28;19918;-44
2022/05/30 03:48:50;;;;;;;;;;;;;;;22.59;47.94;98773.28;2044715;28;19918;-45
2022/05/30 03:49:57;;;;;;;;;;;;;;;22.57;47.92;98776.22;2044396;28;19919;-46
2022/05/30 03:50:57;;;;;;;;;;;;;;;22.58;47.96;98777.06;2045568;28;19918;-44
2022/05/30 03:51:58;;;;;;;;;;;;;;;22.58;48.00;98779.81;2044543;28;19922;-45
2022/05/30 03:53:05;;;;;;;;;;;;;;;22.57;48.11;98778.97;2044031;28;20037;-46
2022/05/30 03:54:05;;;;;;;;;;;;;;;22.57;48.25;98784.47;2044740;28;20312;-45
2022/05/30 03:55:08;;;;;;;;;;;;;;;22.56;48.29;98791.00;2045036;28;19915;-47
2022/05/30 03:56:08;;;;;;;;;;;;;;;22.56;48.14;98790.16;2043234;28;20388;-45
2022/05/30 03:57:08;;;;;;;;;;;;;;;22.56;48.38;98790.16;2044845;28;19925;-45
2022/05/30 03:58:10;;;;;;;;;;;;;;;22.55;48.27;98789.31;2044318;28;19922;-45
2022/05/30 03:59:10;;;;;;;;;;;;;;;22.55;48.51;98789.31;2046157;28;19924;-44
2022/05/30 04:00:12;;;;;;;;;;;;;;;22.54;48.30;98793.13;2038485;28;20009;-45
2022/05/30 04:01:13;;;;;;;;;;;;;;;22.54;48.45;98790.38;2042727;28;20043;-44
2022/05/30 04:02:13;;;;;;;;;;;;;;;22.54;48.51;98789.50;2045213;28;19914;-46
2022/05/30 04:03:13;;;;;;;;;;;;;;;22.54;48.49;98775.78;2043769;28;19977;-44
2022/05/30 04:04:14;;;;;;;;;;;;;;;22.54;48.45;98782.13;2048343;28;19972;-45
2022/05/30 04:05:15;;;;;;;;;;;;;;;22.54;48.49;98782.13;2052054;28;19921;-44
2022/05/30 04:06:16;;;;;;;;;;;;;;;22.53;48.39;98780.41;2044040;28;20976;-46
2022/05/30 04:07:16;;;;;;;;;;;;;;;22.53;48.23;98780.41;2043578;28;20394;-44
2022/05/30 04:08:16;;;;;;;;;;;;;;;22.53;48.33;98780.41;2045511;28;19973;-46
2022/05/30 04:09:16;;;;;;;;;;;;;;;22.55;48.20;98786.56;2043600;28;20173;-45
2022/05/30 04:10:17;;;;;;;;;;;;;;;22.55;48.28;98788.47;2045548;28;19957;-46
2022/05/30 04:11:17;;;;;;;;;;;;;;;22.54;48.36;98790.38;2044311;28;20029;-48
2022/05/30 04:12:21;;;;;;;;;;;;;;;22.54;48.28;98790.38;2043485;28;19969;-45
2022/05/30 04:13:21;;;;;;;;;;;;;;;22.55;48.20;98794.81;2045095;28;19921;-45
2022/05/30 04:14:22;;;;;;;;;;;;;;;22.54;48.17;98797.75;2043314;28;19918;-45
2022/05/30 04:15:22;;;;;;;;;;;;;;;22.55;48.17;98796.72;2045527;28;20319;-46
2022/05/30 04:16:23;;;;;;;;;;;;;;;22.54;48.17;98795.88;2042859;28;19918;-46
2022/05/30 04:17:24;;;;;;;;;;;;;;;22.54;48.09;98798.63;2045379;28;19924;-42
2022/05/30 04:18:24;;;;;;;;;;;;;;;22.54;48.23;98798.63;2044136;28;20621;-42
2022/05/30 04:19:24;;;;;;;;;;;;;;;22.54;48.12;98798.63;2044131;28;20287;-42
2022/05/30 04:20:25;;;;;;;;;;;;;;;22.54;48.29;98801.34;2043761;28;19917;-46
2022/05/30 04:21:26;;;;;;;;;;;;;;;22.54;48.18;98803.22;2043523;28;19924;-45
2022/05/30 04:22:26;;;;;;;;;;;;;;;22.54;48.18;98795.88;2044217;28;20444;-45
2022/05/30 04:23:26;;;;;;;;;;;;;;;22.54;48.20;98798.63;2042083;28;20266;-45
2022/05/30 04:24:28;;;;;;;;;;;;;;;22.54;48.08;98804.09;2042863;28;19929;-45
2022/05/30 04:25:29;;;;;;;;;;;;;;;22.53;48.24;98796.06;2043818;28;19928;-45
2022/05/30 04:26:29;;;;;;;;;;;;;;;22.54;48.18;98798.63;2042465;28;20360;-44
2022/05/30 04:27:29;;;;;;;;;;;;;;;22.53;48.21;98802.41;2041445;28;19918;-44
2022/05/30 04:28:30;;;;;;;;;;;;;;;22.53;48.30;98802.41;2043870;28;19918;-44
2022/05/30 04:29:30;;;;;;;;;;;;;;;22.53;48.26;98802.41;2042704;28;19926;-45
2022/05/30 04:30:31;;;;;;;;;;;;;;;22.53;48.31;98807.88;2044144;28;20110;-45
2022/05/30 04:31:31;;;;;;;;;;;;;;;22.53;48.53;98807.03;2043324;28;19921;-45
2022/05/30 04:32:31;;;;;;;;;;;;;;;22.51;48.45;98804.50;2043487;28;19918;-45
2022/05/30 04:33:33;;;;;;;;;;;;;;;22.51;48.53;98804.50;2042906;28;19914;-46
2022/05/30 04:34:33;;;;;;;;;;;;;;;22.50;48.75;98802.81;2043504;28;19969;-45
2022/05/30 04:35:33;;;;;;;;;;;;;;;22.51;48.69;98809.13;2044177;28;19918;-44
2022/05/30 04:36:34;;;;;;;;;;;;;;;22.49;48.57;98812.09;2043137;28;19951;-45
2022/05/30 04:37:34;;;;;;;;;;;;;;;22.49;48.79;98812.09;2043999;28;20531;-45
2022/05/30 04:38:35;;;;;;;;;;;;;;;22.48;48.58;98813.13;2043462;28;19918;-45
2022/05/30 04:39:35;;;;;;;;;;;;;;;22.48;48.63;98811.22;2043406;28;20496;-45
2022/05/30 04:40:35;;;;;;;;;;;;;;;22.48;48.72;98810.41;2043249;28;19944;-45
2022/05/30 04:41:36;;;;;;;;;;;;;;;22.48;48.74;98811.22;2041626;28;19926;-45
2022/05/30 04:42:36;;;;;;;;;;;;;;;22.48;48.67;98804.91;2043023;28;19929;-47
2022/05/30 04:43:36;;;;;;;;;;;;;;;22.46;48.66;98807.88;2043870;28;19917;-46
2022/05/30 04:44:37;;;;;;;;;;;;;;;22.47;48.71;98809.56;2043153;28;20063;-45
2022/05/30 04:45:37;;;;;;;;;;;;;;;22.47;48.48;98811.47;2042412;28;19928;-47
2022/05/30 04:46:38;;;;;;;;;;;;;;;22.47;48.71;98816.94;2043792;28;19924;-46
2022/05/30 04:47:39;;;;;;;;;;;;;;;22.47;48.49;98814.22;2043287;28;19961;-45
2022/05/30 04:48:40;;;;;;;;;;;;;;;22.47;48.41;98808.72;2044590;28;19968;-43
2022/05/30 04:49:40;;;;;;;;;;;;;;;22.48;48.40;98815.88;2040340;28;19977;-45
2022/05/30 04:50:41;;;;;;;;;;;;;;;22.47;48.36;98815.03;2044879;28;19918;-43
2022/05/30 04:51:41;;;;;;;;;;;;;;;22.47;48.40;98820.53;2042952;28;19925;-45
2022/05/30 04:52:43;;;;;;;;;;;;;;;22.48;48.41;98821.38;2043534;28;19925;-44
2022/05/30 04:53:43;;;;;;;;;;;;;;;22.48;48.32;98821.38;2044447;28;19964;-45
2022/05/30 04:54:43;;;;;;;;;;;;;;;22.47;48.34;98819.69;2043345;28;19941;-45
2022/05/30 04:55:44;;;;;;;;;;;;;;;22.47;48.31;98819.69;2042444;28;20390;-45
2022/05/30 04:56:44;;;;;;;;;;;;;;;22.47;48.26;98823.28;2043460;28;20738;-45
2022/05/30 04:57:46;;;;;;;;;;;;;;;22.47;48.39;98825.19;2044754;28;20856;-45
2022/05/30 04:58:47;;;;;;;;;;;;;;;22.47;48.25;98822.44;2042255;28;19937;-46
2022/05/30 04:59:47;;;;;;;;;;;;;;;22.47;48.34;98816.94;2042699;28;19921;-46
2022/05/30 05:00:47;;;;;;;;;;;;;;;22.47;48.35;98825.19;2043306;28;20012;-44
2022/05/30 05:01:48;;;;;;;;;;;;;;;22.48;48.26;98824.13;2042834;28;19920;-46
2022/05/30 05:02:51;;;;;;;;;;;;;;;22.48;48.41;98818.63;2044447;28;19949;-47
2022/05/30 05:03:51;;;;;;;;;;;;;;;22.47;48.38;98825.19;2044331;28;20391;-46
2022/05/30 05:04:51;;;;;;;;;;;;;;;22.47;48.14;98819.69;2043874;28;19922;-45
2022/05/30 05:05:58;;;;;;;;;;;;;;;22.46;48.17;98824.34;2044080;28;19925;-45
2022/05/30 05:06:58;;;;;;;;;;;;;;;22.47;48.22;98831.53;2044434;28;20034;-44
2022/05/30 05:08:00;;;;;;;;;;;;;;;22.47;48.28;98828.78;2041443;28;19922;-46
2022/05/30 05:09:06;;;;;;;;;;;;;;;22.47;48.13;98837.00;2043814;28;20213;-47
2022/05/30 05:10:25;;;;;;;;;;;;;;;22.47;48.38;98836.16;2041750;28;19917;-44
2022/05/30 05:11:30;;;;;;;;;;;;;;;22.47;48.23;98833.44;2039592;28;19937;-46
2022/05/30 05:12:31;;;;;;;;;;;;;;;22.45;48.19;98832.78;2043116;28;20548;-45
2022/05/30 05:13:31;;;;;;;;;;;;;;;22.46;48.10;98838.06;2043363;28;20268;-45
2022/05/30 05:14:31;;;;;;;;;;;;;;;22.46;48.41;98845.44;2044033;28;19980;-46
2022/05/30 05:15:31;;;;;;;;;;;;;;;22.46;48.16;98839.94;2042789;28;20337;-45
2022/05/30 05:16:32;;;;;;;;;;;;;;;22.46;48.43;98845.44;2044457;28;19918;-46
2022/05/30 05:17:32;;;;;;;;;;;;;;;22.46;48.34;98850.94;2043955;28;19918;-47
2022/05/30 05:18:33;;;;;;;;;;;;;;;22.46;48.29;98845.44;2044243;28;20670;-46
2022/05/30 05:19:34;;;;;;;;;;;;;;;22.46;48.43;98850.94;2044830;28;20613;-45
2022/05/30 05:20:38;;;;;;;;;;;;;;;22.46;48.29;98845.44;2043675;28;19928;-46
2022/05/30 05:21:40;;;;;;;;;;;;;;;22.45;48.52;98849.25;2043393;28;20307;-45
2022/05/30 05:22:40;;;;;;;;;;;;;;;22.44;48.38;98853.03;2051946;28;19918;-45
2022/05/30 05:23:40;;;;;;;;;;;;;;;22.45;48.56;98852.00;2052220;28;19941;-45
2022/05/30 05:24:41;;;;;;;;;;;;;;;22.45;48.30;98846.50;2042459;28;19922;-44
2022/05/30 05:25:42;;;;;;;;;;;;;;;22.45;48.54;98843.75;2040769;28;19922;-45
2022/05/30 05:26:43;;;;;;;;;;;;;;;22.46;48.50;98845.44;2043258;28;20525;-44